sensor_id;sensor_type;location;lat;lon;timestamp;pressure;altitude;pressure_sealevel;temperature;humidity
50123;BME280;36021;48.670;6.184;2023-05-19T00:00:54;99540.94;;;14.09;100.00
50123;BME280;36021;48.670;6.184;2023-05-19T00:03:21;99529.13;;;14.17;100.00
50123;BME280;36021;48.670;6.184;2023-05-19T00:05:47;99530.97;;;14.22;100.00
50123;BME280;36021;48.670;6.184;2023-05-19T00:08:15;99524.78;;;14.11;100.00
50123;BME280;36021;48.670;6.184;2023-05-19T00:10:42;99529.03;;;14.22;100.00
50123;BME280;36021;48.670;6.184;2023-05-19T00:13:33;99527.69;;;14.06;100.00
50123;BME280;36021;48.670;6.184;2023-05-19T00:15:59;99532.28;;;14.10;100.00
50123;BME280;36021;48.670;6.184;2023-05-19T00:18:24;99529.19;;;13.98;100.00
50123;BME280;36021;48.670;6.184;2023-05-19T00:20:50;99529.41;;;14.02;100.00
50123;BME280;36021;48.670;6.184;2023-05-19T00:23:16;99528.66;;;13.83;100.00
50123;BME280;36021;48.670;6.184;2023-05-19T00:25:42;99520.34;;;13.83;100.00
50123;BME280;36021;48.670;6.184;2023-05-19T00:28:07;99521.03;;;13.75;100.00
50123;BME280;36021;48.670;6.184;2023-05-19T00:30:33;99519.19;;;13.70;100.00
50123;BME280;36021;48.670;6.184;2023-05-19T00:33:00;99521.94;;;13.70;100.00
50123;BME280;36021;48.670;6.184;2023-05-19T00:35:25;99515.88;;;13.68;100.00
50123;BME280;36021;48.670;6.184;2023-05-19T00:37:51;99516.25;;;13.62;100.00
50123;BME280;36021;48.670;6.184;2023-05-19T00:40:17;99516.63;;;13.74;100.00
50123;BME280;36021;48.670;6.184;2023-05-19T00:42:42;99513.13;;;13.82;100.00
50123;BME280;36021;48.670;6.184;2023-05-19T00:45:08;99514.88;;;13.78;100.00
50123;BME280;36021;48.670;6.184;2023-05-19T00:47:36;99517.75;;;13.73;100.00
50123;BME280;36021;48.670;6.184;2023-05-19T00:50:02;99520.34;;;13.50;100.00
50123;BME280;36021;48.670;6.184;2023-05-19T00:52:28;99524.47;;;13.34;100.00
50123;BME280;36021;48.670;6.184;2023-05-19T00:54:54;99512.84;;;13.51;100.00
50123;BME280;36021;48.670;6.184;2023-05-19T00:57:20;99508.88;;;13.57;100.00
50123;BME280;36021;48.670;6.184;2023-05-19T00:59:47;99504.00;;;13.49;100.00
50123;BME280;36021;48.670;6.184;2023-05-19T01:02:13;99508.38;;;13.36;100.00
50123;BME280;36021;48.670;6.184;2023-05-19T01:04:40;99500.16;;;13.31;100.00
50123;BME280;36021;48.670;6.184;2023-05-19T01:07:06;99499.56;;;13.34;100.00
50123;BME280;36021;48.670;6.184;2023-05-19T01:09:32;99500.75;;;13.28;100.00
50123;BME280;36021;48.670;6.184;2023-05-19T01:12:00;99503.22;;;13.30;100.00
50123;BME280;36021;48.670;6.184;2023-05-19T01:14:27;99504.19;;;13.20;100.00
50123;BME280;36021;48.670;6.184;2023-05-19T01:17:15;99499.94;;;13.28;100.00
50123;BME280;36021;48.670;6.184;2023-05-19T01:19:56;99501.50;;;13.34;100.00
50123;BME280;36021;48.670;6.184;2023-05-19T01:22:36;99504.66;;;13.27;100.00
50123;BME280;36021;48.670;6.184;2023-05-19T01:30:58;99507.69;;;13.26;100.00
50123;BME280;36021;48.670;6.184;2023-05-19T01:33:26;99508.25;;;13.28;100.00
50123;BME280;36021;48.670;6.184;2023-05-19T01:35:54;99509.06;;;13.28;100.00
50123;BME280;36021;48.670;6.184;2023-05-19T01:38:20;99505.91;;;13.35;100.00
50123;BME280;36021;48.670;6.184;2023-05-19T01:40:48;99506.72;;;13.35;100.00
50123;BME280;36021;48.670;6.184;2023-05-19T01:43:20;99506.88;;;13.44;100.00
50123;BME280;36021;48.670;6.184;2023-05-19T01:45:47;99511.84;;;13.28;100.00
50123;BME280;36021;48.670;6.184;2023-05-19T01:48:14;99509.88;;;13.10;100.00
50123;BME280;36021;48.670;6.184;2023-05-19T01:50:40;99503.75;;;13.13;100.00
50123;BME280;36021;48.670;6.184;2023-05-19T01:53:07;99505.63;;;13.18;100.00
50123;BME280;36021;48.670;6.184;2023-05-19T01:55:43;99509.63;;;13.25;100.00
50123;BME280;36021;48.670;6.184;2023-05-19T01:58:22;99493.63;;;13.22;100.00
50123;BME280;36021;48.670;6.184;2023-05-19T02:01:00;99490.88;;;13.22;100.00
50123;BME280;36021;48.670;6.184;2023-05-19T02:09:22;99499.97;;;13.04;100.00
50123;BME280;36021;48.670;6.184;2023-05-19T02:11:54;99503.50;;;12.72;100.00
50123;BME280;36021;48.670;6.184;2023-05-19T02:17:03;99501.00;;;12.71;100.00
50123;BME280;36021;48.670;6.184;2023-05-19T02:19:32;99504.31;;;12.73;100.00
50123;BME280;36021;48.670;6.184;2023-05-19T02:21:57;99499.81;;;12.77;100.00
50123;BME280;36021;48.670;6.184;2023-05-19T02:24:24;99507.75;;;12.83;100.00
50123;BME280;36021;48.670;6.184;2023-05-19T02:26:52;99506.78;;;12.74;100.00
50123;BME280;36021;48.670;6.184;2023-05-19T02:29:19;99505.56;;;12.80;100.00
50123;BME280;36021;48.670;6.184;2023-05-19T02:31:45;99507.38;;;12.71;100.00
50123;BME280;36021;48.670;6.184;2023-05-19T02:34:11;99509.47;;;12.79;100.00
50123;BME280;36021;48.670;6.184;2023-05-19T02:36:39;99501.63;;;12.86;100.00
50123;BME280;36021;48.670;6.184;2023-05-19T02:39:09;99505.06;;;12.78;100.00
50123;BME280;36021;48.670;6.184;2023-05-19T02:41:35;99502.91;;;12.94;100.00
50123;BME280;36021;48.670;6.184;2023-05-19T02:44:01;99500.72;;;12.91;100.00
50123;BME280;36021;48.670;6.184;2023-05-19T02:46:27;99500.50;;;12.87;100.00
50123;BME280;36021;48.670;6.184;2023-05-19T02:48:54;99502.66;;;12.72;100.00
50123;BME280;36021;48.670;6.184;2023-05-19T02:51:20;99503.34;;;12.82;100.00
50123;BME280;36021;48.670;6.184;2023-05-19T02:53:45;99499.91;;;12.90;100.00
50123;BME280;36021;48.670;6.184;2023-05-19T02:56:11;99500.00;;;12.85;100.00
50123;BME280;36021;48.670;6.184;2023-05-19T02:58:38;99509.66;;;12.64;100.00
50123;BME280;36021;48.670;6.184;2023-05-19T03:01:04;99507.72;;;12.65;100.00
50123;BME280;36021;48.670;6.184;2023-05-19T03:03:30;99504.63;;;12.47;100.00
50123;BME280;36021;48.670;6.184;2023-05-19T03:05:57;99504.94;;;12.46;100.00
50123;BME280;36021;48.670;6.184;2023-05-19T03:08:24;99511.09;;;12.38;100.00
50123;BME280;36021;48.670;6.184;2023-05-19T03:10:50;99507.50;;;12.37;100.00
50123;BME280;36021;48.670;6.184;2023-05-19T03:13:15;99501.06;;;12.23;100.00
50123;BME280;36021;48.670;6.184;2023-05-19T03:15:44;99506.03;;;12.21;100.00
50123;BME280;36021;48.670;6.184;2023-05-19T03:18:10;99495.66;;;12.13;100.00
50123;BME280;36021;48.670;6.184;2023-05-19T03:20:37;99509.41;;;12.18;100.00
50123;BME280;36021;48.670;6.184;2023-05-19T03:23:02;99507.63;;;12.27;100.00
50123;BME280;36021;48.670;6.184;2023-05-19T03:25:28;99511.75;;;12.30;100.00
50123;BME280;36021;48.670;6.184;2023-05-19T03:27:55;99512.00;;;12.33;100.00
50123;BME280;36021;48.670;6.184;2023-05-19T03:30:22;99506.81;;;12.27;100.00
50123;BME280;36021;48.670;6.184;2023-05-19T03:32:58;99509.88;;;12.25;100.00
50123;BME280;36021;48.670;6.184;2023-05-19T03:35:26;99506.75;;;12.32;100.00
50123;BME280;36021;48.670;6.184;2023-05-19T03:37:51;99502.22;;;12.17;100.00
50123;BME280;36021;48.670;6.184;2023-05-19T03:40:18;99502.00;;;12.14;100.00
50123;BME280;36021;48.670;6.184;2023-05-19T03:42:44;99506.22;;;12.06;100.00
50123;BME280;36021;48.670;6.184;2023-05-19T03:45:10;99505.16;;;12.02;100.00
50123;BME280;36021;48.670;6.184;2023-05-19T03:47:37;99499.97;;;11.95;100.00
50123;BME280;36021;48.670;6.184;2023-05-19T03:50:15;99504.66;;;11.95;100.00
50123;BME280;36021;48.670;6.184;2023-05-19T03:52:49;99506.84;;;11.98;100.00
50123;BME280;36021;48.670;6.184;2023-05-19T03:55:27;99514.00;;;12.04;100.00
50123;BME280;36021;48.670;6.184;2023-05-19T03:57:55;99501.31;;;11.98;100.00
50123;BME280;36021;48.670;6.184;2023-05-19T04:00:21;99507.97;;;11.97;100.00
50123;BME280;36021;48.670;6.184;2023-05-19T04:02:49;99515.34;;;11.78;100.00
50123;BME280;36021;48.670;6.184;2023-05-19T04:05:15;99518.13;;;11.78;100.00
50123;BME280;36021;48.670;6.184;2023-05-19T04:07:44;99520.56;;;11.79;100.00
50123;BME280;36021;48.670;6.184;2023-05-19T04:10:11;99521.72;;;11.68;100.00
50123;BME280;36021;48.670;6.184;2023-05-19T04:12:37;99517.03;;;11.74;100.00
50123;BME280;36021;48.670;6.184;2023-05-19T04:15:03;99522.22;;;11.80;100.00
50123;BME280;36021;48.670;6.184;2023-05-19T04:17:31;99520.38;;;11.71;100.00
50123;BME280;36021;48.670;6.184;2023-05-19T04:19:57;99519.84;;;11.64;100.00
50123;BME280;36021;48.670;6.184;2023-05-19T04:22:22;99520.38;;;11.71;100.00
50123;BME280;36021;48.670;6.184;2023-05-19T04:24:48;99517.31;;;11.72;100.00
50123;BME280;36021;48.670;6.184;2023-05-19T04:27:16;99516.97;;;11.79;100.00
50123;BME280;36021;48.670;6.184;2023-05-19T04:29:44;99519.50;;;11.75;100.00
50123;BME280;36021;48.670;6.184;2023-05-19T04:32:12;99524.78;;;11.72;100.00
50123;BME280;36021;48.670;6.184;2023-05-19T04:34:42;99523.66;;;11.73;100.00
50123;BME280;36021;48.670;6.184;2023-05-19T04:37:14;99513.72;;;11.72;100.00
50123;BME280;36021;48.670;6.184;2023-05-19T04:39:42;99517.53;;;11.81;100.00
50123;BME280;36021;48.670;6.184;2023-05-19T04:42:10;99520.75;;;11.88;100.00
50123;BME280;36021;48.670;6.184;2023-05-19T04:44:37;99520.75;;;11.88;100.00
50123;BME280;36021;48.670;6.184;2023-05-19T04:47:06;99526.28;;;11.88;100.00
50123;BME280;36021;48.670;6.184;2023-05-19T04:49:34;99520.75;;;11.88;100.00
50123;BME280;36021;48.670;6.184;2023-05-19T04:52:07;99518.53;;;11.90;100.00
50123;BME280;36021;48.670;6.184;2023-05-19T04:54:35;99523.00;;;11.86;100.00
50123;BME280;36021;48.670;6.184;2023-05-19T04:57:02;99533.94;;;11.96;100.00
50123;BME280;36021;48.670;6.184;2023-05-19T04:59:31;99529.03;;;11.88;100.00
50123;BME280;36021;48.670;6.184;2023-05-19T05:01:56;99527.34;;;11.92;100.00
50123;BME280;36021;48.670;6.184;2023-05-19T05:04:23;99526.94;;;11.80;100.00
50123;BME280;36021;48.670;6.184;2023-05-19T05:06:51;99528.50;;;11.91;100.00
50123;BME280;36021;48.670;6.184;2023-05-19T05:09:18;99524.91;;;11.90;100.00
50123;BME280;36021;48.670;6.184;2023-05-19T05:11:44;99527.94;;;11.89;100.00
50123;BME280;36021;48.670;6.184;2023-05-19T05:14:11;99532.03;;;11.91;100.00
50123;BME280;36021;48.670;6.184;2023-05-19T05:16:38;99533.13;;;11.95;100.00
50123;BME280;36021;48.670;6.184;2023-05-19T05:19:05;99524.22;;;12.04;100.00
50123;BME280;36021;48.670;6.184;2023-05-19T05:21:31;99522.56;;;12.02;100.00
50123;BME280;36021;48.670;6.184;2023-05-19T05:23:58;99525.03;;;12.04;100.00
50123;BME280;36021;48.670;6.184;2023-05-19T05:26:29;99524.44;;;12.07;100.00
50123;BME280;36021;48.670;6.184;2023-05-19T05:28:57;99528.47;;;12.20;100.00
50123;BME280;36021;48.670;6.184;2023-05-19T05:31:23;99533.41;;;12.23;100.00
50123;BME280;36021;48.670;6.184;2023-05-19T05:33:49;99535.75;;;12.34;100.00
50123;BME280;36021;48.670;6.184;2023-05-19T05:36:18;99528.44;;;12.43;100.00
50123;BME280;36021;48.670;6.184;2023-05-19T05:38:44;99536.03;;;12.57;100.00
50123;BME280;36021;48.670;6.184;2023-05-19T05:41:10;99529.03;;;12.64;100.00
50123;BME280;36021;48.670;6.184;2023-05-19T05:43:36;99536.91;;;12.76;100.00
50123;BME280;36021;48.670;6.184;2023-05-19T05:46:04;99539.59;;;12.81;100.00
50123;BME280;36021;48.670;6.184;2023-05-19T05:48:30;99533.38;;;12.70;100.00
50123;BME280;36021;48.670;6.184;2023-05-19T05:50:56;99540.41;;;12.81;100.00
50123;BME280;36021;48.670;6.184;2023-05-19T05:53:28;99532.50;;;12.93;100.00
50123;BME280;36021;48.670;6.184;2023-05-19T05:55:55;99532.03;;;12.86;100.00
50123;BME280;36021;48.670;6.184;2023-05-19T05:58:25;99531.69;;;12.93;100.00
50123;BME280;36021;48.670;6.184;2023-05-19T06:00:51;99533.94;;;12.91;100.00
50123;BME280;36021;48.670;6.184;2023-05-19T06:03:17;99535.00;;;12.95;100.00
50123;BME280;36021;48.670;6.184;2023-05-19T06:05:46;99524.44;;;12.97;100.00
50123;BME280;36021;48.670;6.184;2023-05-19T06:08:12;99526.00;;;13.03;100.00
50123;BME280;36021;48.670;6.184;2023-05-19T06:10:38;99515.66;;;13.14;100.00
50123;BME280;36021;48.670;6.184;2023-05-19T06:13:07;99524.88;;;13.04;100.00
50123;BME280;36021;48.670;6.184;2023-05-19T06:15:35;99516.75;;;13.13;100.00
50123;BME280;36021;48.670;6.184;2023-05-19T06:18:10;99519.00;;;13.11;100.00
50123;BME280;36021;48.670;6.184;2023-05-19T06:20:35;99516.94;;;13.21;100.00
50123;BME280;36021;48.670;6.184;2023-05-19T06:23:01;99517.88;;;13.30;100.00
50123;BME280;36021;48.670;6.184;2023-05-19T06:25:28;99518.94;;;13.34;100.00
50123;BME280;36021;48.670;6.184;2023-05-19T06:27:54;99520.66;;;13.30;100.00
50123;BME280;36021;48.670;6.184;2023-05-19T06:30:21;99522.16;;;13.41;100.00
50123;BME280;36021;48.670;6.184;2023-05-19T06:32:57;99524.97;;;13.36;100.00
50123;BME280;36021;48.670;6.184;2023-05-19T06:35:24;99521.97;;;13.51;100.00
50123;BME280;36021;48.670;6.184;2023-05-19T06:37:49;99519.50;;;13.50;100.00
50123;BME280;36021;48.670;6.184;2023-05-19T06:40:15;99513.63;;;13.70;100.00
50123;BME280;36021;48.670;6.184;2023-05-19T06:42:42;99520.59;;;13.68;100.00
50123;BME280;36021;48.670;6.184;2023-05-19T06:45:19;99514.25;;;13.81;100.00
50123;BME280;36021;48.670;6.184;2023-05-19T06:47:49;99511.00;;;13.92;100.00
50123;BME280;36021;48.670;6.184;2023-05-19T06:50:14;99514.00;;;13.96;100.00
50123;BME280;36021;48.670;6.184;2023-05-19T06:52:41;99520.66;;;13.95;100.00
50123;BME280;36021;48.670;6.184;2023-05-19T06:55:07;99514.50;;;13.98;100.00
50123;BME280;36021;48.670;6.184;2023-05-19T06:57:35;99514.03;;;14.09;100.00
50123;BME280;36021;48.670;6.184;2023-05-19T07:00:01;99511.84;;;13.93;100.00
50123;BME280;36021;48.670;6.184;2023-05-19T07:02:30;99525.41;;;14.08;100.00
50123;BME280;36021;48.670;6.184;2023-05-19T07:04:55;99514.94;;;14.05;100.00
50123;BME280;36021;48.670;6.184;2023-05-19T07:07:21;99521.13;;;14.16;100.00
50123;BME280;36021;48.670;6.184;2023-05-19T07:09:47;99512.91;;;14.24;100.00
50123;BME280;36021;48.670;6.184;2023-05-19T07:12:13;99513.09;;;14.14;100.00
50123;BME280;36021;48.670;6.184;2023-05-19T07:14:41;99513.00;;;14.19;100.00
50123;BME280;36021;48.670;6.184;2023-05-19T07:17:08;99511.28;;;14.23;100.00
50123;BME280;36021;48.670;6.184;2023-05-19T07:19:36;99519.94;;;14.35;100.00
50123;BME280;36021;48.670;6.184;2023-05-19T07:22:02;99523.22;;;14.37;100.00
50123;BME280;36021;48.670;6.184;2023-05-19T07:24:28;99521.34;;;14.33;100.00
50123;BME280;36021;48.670;6.184;2023-05-19T07:26:55;99518.19;;;14.39;100.00
50123;BME280;36021;48.670;6.184;2023-05-19T07:29:22;99530.63;;;14.55;100.00
50123;BME280;36021;48.670;6.184;2023-05-19T07:31:47;99526.69;;;14.56;100.00
50123;BME280;36021;48.670;6.184;2023-05-19T07:34:19;99530.50;;;14.60;100.00
50123;BME280;36021;48.670;6.184;2023-05-19T07:36:45;99523.53;;;14.49;100.00
50123;BME280;36021;48.670;6.184;2023-05-19T07:39:11;99518.19;;;14.39;100.00
50123;BME280;36021;48.670;6.184;2023-05-19T07:41:36;99517.16;;;14.35;100.00
50123;BME280;36021;48.670;6.184;2023-05-19T07:44:02;99518.69;;;14.41;100.00
50123;BME280;36021;48.670;6.184;2023-05-19T07:46:35;99517.66;;;14.65;100.00
50123;BME280;36021;48.670;6.184;2023-05-19T07:49:02;99513.94;;;14.69;100.00
50123;BME280;36021;48.670;6.184;2023-05-19T07:51:28;99515.81;;;14.74;100.00
50123;BME280;36021;48.670;6.184;2023-05-19T07:53:54;99508.50;;;14.78;100.00
50123;BME280;36021;48.670;6.184;2023-05-19T07:56:19;99514.97;;;14.87;100.00
50123;BME280;36021;48.670;6.184;2023-05-19T07:58:46;99507.97;;;14.89;100.00
50123;BME280;36021;48.670;6.184;2023-05-19T08:01:12;99505.91;;;14.95;100.00
50123;BME280;36021;48.670;6.184;2023-05-19T08:03:38;99509.03;;;15.16;100.00
50123;BME280;36021;48.670;6.184;2023-05-19T08:06:04;99502.91;;;15.05;100.00
50123;BME280;36021;48.670;6.184;2023-05-19T08:08:31;99501.13;;;15.09;100.00
50123;BME280;36021;48.670;6.184;2023-05-19T08:11:02;99501.25;;;15.04;100.00
50123;BME280;36021;48.670;6.184;2023-05-19T08:13:29;99500.50;;;15.12;100.00
50123;BME280;36021;48.670;6.184;2023-05-19T08:15:55;99499.34;;;15.27;100.00
50123;BME280;36021;48.670;6.184;2023-05-19T08:18:25;99494.03;;;15.39;100.00
50123;BME280;36021;48.670;6.184;2023-05-19T08:20:51;99484.22;;;15.55;100.00
50123;BME280;36021;48.670;6.184;2023-05-19T08:23:17;99485.28;;;15.68;100.00
50123;BME280;36021;48.670;6.184;2023-05-19T08:25:43;99487.81;;;15.78;100.00
50123;BME280;36021;48.670;6.184;2023-05-19T08:28:09;99485.59;;;15.88;100.00
50123;BME280;36021;48.670;6.184;2023-05-19T08:30:35;99477.81;;;15.99;100.00
50123;BME280;36021;48.670;6.184;2023-05-19T08:33:02;99483.19;;;15.95;100.00
50123;BME280;36021;48.670;6.184;2023-05-19T08:35:28;99480.41;;;15.95;100.00
50123;BME280;36021;48.670;6.184;2023-05-19T08:37:53;99464.53;;;15.96;100.00
50123;BME280;36021;48.670;6.184;2023-05-19T08:40:19;99461.50;;;16.06;100.00
50123;BME280;36021;48.670;6.184;2023-05-19T08:42:45;99462.34;;;16.15;100.00
50123;BME280;36021;48.670;6.184;2023-05-19T08:45:11;99459.75;;;16.27;100.00
50123;BME280;36021;48.670;6.184;2023-05-19T08:47:44;99455.69;;;16.33;100.00
50123;BME280;36021;48.670;6.184;2023-05-19T08:50:12;99457.50;;;16.29;100.00
50123;BME280;36021;48.670;6.184;2023-05-19T08:52:58;99443.22;;;16.22;100.00
50123;BME280;36021;48.670;6.184;2023-05-19T08:58:07;99447.41;;;16.50;100.00
50123;BME280;36021;48.670;6.184;2023-05-19T09:00:58;99442.47;;;16.47;100.00
50123;BME280;36021;48.670;6.184;2023-05-19T09:03:32;99436.81;;;16.61;100.00
50123;BME280;36021;48.670;6.184;2023-05-19T09:06:09;99426.22;;;16.72;100.00
50123;BME280;36021;48.670;6.184;2023-05-19T09:08:40;99430.28;;;16.74;100.00
50123;BME280;36021;48.670;6.184;2023-05-19T09:11:06;99430.81;;;16.85;100.00
50123;BME280;36021;48.670;6.184;2023-05-19T09:13:33;99428.66;;;16.99;100.00
50123;BME280;36021;48.670;6.184;2023-05-19T09:16:00;99434.41;;;17.11;100.00
50123;BME280;36021;48.670;6.184;2023-05-19T09:18:28;99431.81;;;17.14;100.00
50123;BME280;36021;48.670;6.184;2023-05-19T09:20:58;99424.25;;;17.24;100.00
50123;BME280;36021;48.670;6.184;2023-05-19T09:23:29;99421.31;;;17.20;100.00
50123;BME280;36021;48.670;6.184;2023-05-19T09:25:56;99411.28;;;17.36;100.00
50123;BME280;36021;48.670;6.184;2023-05-19T09:28:26;99407.34;;;17.46;100.00
50123;BME280;36021;48.670;6.184;2023-05-19T09:31:01;99410.28;;;17.49;100.00
50123;BME280;36021;48.670;6.184;2023-05-19T09:33:31;99404.41;;;17.59;100.00
50123;BME280;36021;48.670;6.184;2023-05-19T09:35:57;99406.16;;;17.73;100.00
50123;BME280;36021;48.670;6.184;2023-05-19T09:38:24;99394.66;;;17.83;100.00
50123;BME280;36021;48.670;6.184;2023-05-19T09:40:51;99399.06;;;17.84;100.00
50123;BME280;36021;48.670;6.184;2023-05-19T09:43:17;99402.50;;;17.81;100.00
50123;BME280;36021;48.670;6.184;2023-05-19T09:45:43;99402.50;;;17.81;100.00
50123;BME280;36021;48.670;6.184;2023-05-19T09:48:09;99397.44;;;17.74;100.00
50123;BME280;36021;48.670;6.184;2023-05-19T09:50:34;99403.66;;;17.88;100.00
50123;BME280;36021;48.670;6.184;2023-05-19T09:53:00;99399.88;;;17.93;100.00
50123;BME280;36021;48.670;6.184;2023-05-19T09:55:27;99404.72;;;18.04;100.00
50123;BME280;36021;48.670;6.184;2023-05-19T09:57:54;99394.78;;;18.24;100.00
50123;BME280;36021;48.670;6.184;2023-05-19T10:00:25;99396.66;;;18.41;100.00
50123;BME280;36021;48.670;6.184;2023-05-19T10:02:51;99390.72;;;18.42;100.00
50123;BME280;36021;48.670;6.184;2023-05-19T10:05:18;99382.50;;;18.54;100.00
50123;BME280;36021;48.670;6.184;2023-05-19T10:07:49;99379.19;;;18.52;100.00
50123;BME280;36021;48.670;6.184;2023-05-19T10:10:16;99382.28;;;18.59;100.00
50123;BME280;36021;48.670;6.184;2023-05-19T10:12:42;99377.72;;;18.76;100.00
50123;BME280;36021;48.670;6.184;2023-05-19T10:15:09;99381.00;;;18.98;100.00
50123;BME280;36021;48.670;6.184;2023-05-19T10:17:39;99370.13;;;18.85;100.00
50123;BME280;36021;48.670;6.184;2023-05-19T10:20:14;99375.91;;;19.00;100.00
50123;BME280;36021;48.670;6.184;2023-05-19T10:22:42;99368.34;;;19.01;100.00
50123;BME280;36021;48.670;6.184;2023-05-19T10:25:09;99364.59;;;18.97;100.00
50123;BME280;36021;48.670;6.184;2023-05-19T10:27:41;99365.75;;;18.96;100.00
50123;BME280;36021;48.670;6.184;2023-05-19T10:30:15;99369.56;;;18.91;100.00
50123;BME280;36021;48.670;6.184;2023-05-19T10:32:43;99365.75;;;18.96;100.00
50123;BME280;36021;48.670;6.184;2023-05-19T10:38:04;99370.69;;;19.11;100.00
50123;BME280;36021;48.670;6.184;2023-05-19T10:43:24;99355.22;;;19.13;100.00
50123;BME280;36021;48.670;6.184;2023-05-19T10:45:56;99372.28;;;19.20;100.00
50123;BME280;36021;48.670;6.184;2023-05-19T10:48:22;99365.63;;;19.25;100.00
50123;BME280;36021;48.670;6.184;2023-05-19T10:50:52;99365.91;;;19.32;99.55
50123;BME280;36021;48.670;6.184;2023-05-19T10:53:18;99356.81;;;19.35;100.00
50123;BME280;36021;48.670;6.184;2023-05-19T11:01:13;99358.34;;;19.90;96.73
50123;BME280;36021;48.670;6.184;2023-05-19T11:03:51;99347.88;;;19.99;89.21
50123;BME280;36021;48.670;6.184;2023-05-19T11:06:34;99354.19;;;19.96;87.92
50123;BME280;36021;48.670;6.184;2023-05-19T11:09:12;99351.84;;;20.10;91.98
50123;BME280;36021;48.670;6.184;2023-05-19T11:11:48;99346.03;;;20.27;92.42
50123;BME280;36021;48.670;6.184;2023-05-19T11:14:19;99356.91;;;20.29;92.45
50123;BME280;36021;48.670;6.184;2023-05-19T11:16:48;99351.63;;;20.39;92.27
50123;BME280;36021;48.670;6.184;2023-05-19T11:19:28;99348.94;;;20.43;91.84
50123;BME280;36021;48.670;6.184;2023-05-19T11:21:55;99335.75;;;20.43;89.57
50123;BME280;36021;48.670;6.184;2023-05-19T11:24:44;99343.22;;;20.51;93.45
50123;BME280;36021;48.670;6.184;2023-05-19T11:27:32;99345.75;;;20.56;85.30
50123;BME280;36021;48.670;6.184;2023-05-19T11:30:01;99348.53;;;20.68;89.01
50123;BME280;36021;48.670;6.184;2023-05-19T11:32:34;99348.69;;;20.88;87.17
50123;BME280;36021;48.670;6.184;2023-05-19T11:35:04;99343.78;;;20.97;91.46
50123;BME280;36021;48.670;6.184;2023-05-19T11:37:33;99343.28;;;21.07;90.65
50123;BME280;36021;48.670;6.184;2023-05-19T11:40:03;99347.03;;;21.11;92.36
50123;BME280;36021;48.670;6.184;2023-05-19T11:42:33;99339.03;;;21.25;92.19
50123;BME280;36021;48.670;6.184;2023-05-19T11:44:59;99340.59;;;21.38;92.46
50123;BME280;36021;48.670;6.184;2023-05-19T11:47:26;99335.28;;;21.64;91.64
50123;BME280;36021;48.670;6.184;2023-05-19T11:49:53;99333.13;;;21.73;86.22
50123;BME280;36021;48.670;6.184;2023-05-19T11:52:23;99332.06;;;21.62;88.39
50123;BME280;36021;48.670;6.184;2023-05-19T11:54:49;99324.16;;;21.83;88.75
50123;BME280;36021;48.670;6.184;2023-05-19T11:57:16;99327.78;;;21.68;90.09
50123;BME280;36021;48.670;6.184;2023-05-19T11:59:43;99337.00;;;21.53;87.30
50123;BME280;36021;48.670;6.184;2023-05-19T12:04:41;99335.50;;;21.71;90.92
50123;BME280;36021;48.670;6.184;2023-05-19T12:07:07;99323.34;;;21.83;88.96
50123;BME280;36021;48.670;6.184;2023-05-19T12:09:32;99327.78;;;22.15;89.51
50123;BME280;36021;48.670;6.184;2023-05-19T12:11:59;99327.50;;;22.36;91.19
50123;BME280;36021;48.670;6.184;2023-05-19T12:14:25;99322.13;;;22.47;89.91
50123;BME280;36021;48.670;6.184;2023-05-19T12:16:51;99317.56;;;22.23;87.49
50123;BME280;36021;48.670;6.184;2023-05-19T12:19:17;99312.84;;;22.27;88.86
50123;BME280;36021;48.670;6.184;2023-05-19T12:21:42;99325.63;;;22.59;86.47
50123;BME280;36021;48.670;6.184;2023-05-19T12:24:08;99321.19;;;22.93;84.45
50123;BME280;36021;48.670;6.184;2023-05-19T12:26:35;99319.69;;;23.18;87.26
50123;BME280;36021;48.670;6.184;2023-05-19T12:29:05;99322.22;;;23.04;85.11
50123;BME280;36021;48.670;6.184;2023-05-19T12:31:32;99327.69;;;23.16;82.91
50123;BME280;36021;48.670;6.184;2023-05-19T12:33:59;99322.88;;;22.98;84.27
50123;BME280;36021;48.670;6.184;2023-05-19T12:36:26;99319.63;;;23.15;81.49
50123;BME280;36021;48.670;6.184;2023-05-19T12:38:55;99317.56;;;23.12;83.80
50123;BME280;36021;48.670;6.184;2023-05-19T12:41:22;99326.13;;;23.19;80.50
50123;BME280;36021;48.670;6.184;2023-05-19T12:43:48;99320.78;;;23.33;77.69
50123;BME280;36021;48.670;6.184;2023-05-19T12:46:17;99316.63;;;23.65;76.06
50123;BME280;36021;48.670;6.184;2023-05-19T12:48:44;99309.16;;;23.76;75.77
50123;BME280;36021;48.670;6.184;2023-05-19T12:51:19;99308.91;;;23.62;77.41
50123;BME280;36021;48.670;6.184;2023-05-19T12:53:45;99307.09;;;23.31;81.07
50123;BME280;36021;48.670;6.184;2023-05-19T12:56:12;99311.22;;;23.38;78.26
50123;BME280;36021;48.670;6.184;2023-05-19T12:58:39;99315.31;;;23.40;79.77
50123;BME280;36021;48.670;6.184;2023-05-19T13:01:05;99316.59;;;23.04;82.54
50123;BME280;36021;48.670;6.184;2023-05-19T13:03:39;99308.97;;;23.05;82.99
50123;BME280;36021;48.670;6.184;2023-05-19T13:06:06;99305.41;;;22.89;83.55
50123;BME280;36021;48.670;6.184;2023-05-19T13:08:31;99308.22;;;22.69;83.30
50123;BME280;36021;48.670;6.184;2023-05-19T13:10:58;99302.28;;;22.74;85.50
50123;BME280;36021;48.670;6.184;2023-05-19T13:13:23;99305.03;;;22.36;91.15
50123;BME280;36021;48.670;6.184;2023-05-19T13:15:49;99311.28;;;22.29;88.55
50123;BME280;36021;48.670;6.184;2023-05-19T13:18:15;99306.56;;;22.33;88.86
50123;BME280;36021;48.670;6.184;2023-05-19T13:20:43;99312.66;;;22.20;91.26
50123;BME280;36021;48.670;6.184;2023-05-19T13:23:10;99310.94;;;22.31;89.78
50123;BME280;36021;48.670;6.184;2023-05-19T13:25:36;99294.44;;;22.29;90.86
50123;BME280;36021;48.670;6.184;2023-05-19T13:28:02;99292.16;;;22.35;92.72